createdAt,value
2017-07-20T18:26:43.424Z,24.30
2017-07-20T18:29:10.882Z,24.30
2017-07-20T18:31:38.347Z,24.30
2017-07-20T18:34:06.091Z,24.30
2017-07-20T18:36:33.559Z,24.20
2017-07-20T18:39:01.022Z,24.20
2017-07-20T18:41:28.519Z,24.20
2017-07-20T18:43:56.768Z,24.20
2017-07-20T18:46:24.346Z,24.20
2017-07-20T18:48:51.794Z,24.10
2017-07-20T18:51:19.263Z,24.20
2017-07-20T18:53:47.520Z,24.20
2017-07-20T18:56:14.992Z,24.20
2017-07-20T18:58:42.543Z,24.30
2017-07-20T19:01:10.011Z,24.30
2017-07-20T19:03:37.567Z,24.00
2017-07-20T19:06:05.031Z,23.70
2017-07-20T19:08:32.597Z,23.60
2017-07-20T19:11:00.066Z,23.50
2017-07-20T19:13:28.295Z,23.40
2017-07-20T19:15:55.871Z,23.40
2017-07-20T19:18:23.342Z,23.40
2017-07-20T19:20:50.832Z,23.40
2017-07-20T19:23:18.288Z,23.40
2017-07-20T19:25:45.806Z,23.20
2017-07-20T19:28:13.263Z,23.10
2017-07-20T19:30:40.818Z,23.00
2017-07-20T19:33:08.384Z,23.00
2017-07-20T19:35:35.951Z,23.00
2017-07-20T19:38:03.418Z,23.00
2017-07-20T19:40:31.675Z,23.00
2017-07-20T19:42:59.149Z,23.00
2017-07-20T19:45:26.728Z,23.00
2017-07-20T19:47:54.965Z,22.80
2017-07-20T19:50:22.423Z,22.80
2017-07-20T19:52:49.886Z,22.70
2017-07-20T19:55:17.450Z,22.80
2017-07-20T19:57:45.007Z,22.80
2017-07-20T20:00:12.470Z,22.80
2017-07-20T20:02:40.031Z,22.80
2017-07-20T20:05:07.487Z,22.80
2017-07-20T20:07:34.983Z,22.80
2017-07-20T20:10:02.467Z,22.80
2017-07-20T20:12:29.985Z,22.80
2017-07-20T20:14:58.233Z,22.80
2017-07-20T20:17:25.702Z,22.80
2017-07-20T20:19:53.259Z,22.70
2017-07-20T20:22:20.759Z,22.70
2017-07-20T20:24:48.228Z,22.70
2017-07-20T20:27:15.739Z,22.60
2017-07-20T20:29:43.298Z,22.60
2017-07-20T20:32:10.755Z,22.50
2017-07-20T20:34:38.232Z,22.50
2017-07-20T20:37:06.471Z,22.40
2017-07-20T20:39:34.048Z,22.30
2017-07-20T20:42:01.507Z,22.30
2017-07-20T20:44:28.964Z,22.20
2017-07-20T20:46:56.435Z,22.20
2017-07-20T20:49:24.704Z,22.10
2017-07-20T20:51:52.259Z,22.10
2017-07-20T20:54:19.714Z,22.00
2017-07-20T20:56:47.300Z,22.00
2017-07-20T20:59:15.523Z,22.00
2017-07-20T21:01:43.027Z,21.90
2017-07-20T21:04:10.491Z,21.90
2017-07-20T21:06:38.033Z,21.80
2017-07-20T21:09:05.490Z,21.80
2017-07-20T21:11:33.050Z,21.80
2017-07-20T21:14:00.519Z,21.80
2017-07-20T21:16:27.981Z,21.80
2017-07-20T21:18:55.451Z,21.80
2017-07-20T21:21:23.705Z,21.70
2017-07-20T21:23:51.258Z,21.70
2017-07-20T21:26:18.727Z,21.60
2017-07-20T21:28:51.570Z,21.60
2017-07-20T21:31:19.980Z,21.50
2017-07-20T21:33:47.452Z,21.30
2017-07-20T21:36:14.919Z,21.30
2017-07-20T21:38:43.146Z,21.20
2017-07-20T21:41:10.642Z,21.20
2017-07-20T21:43:38.098Z,21.20
2017-07-20T21:46:05.567Z,21.10
2017-07-20T21:48:33.115Z,21.00
2017-07-20T21:51:00.578Z,21.00
2017-07-20T21:53:28.038Z,21.00
2017-07-20T21:55:55.583Z,20.90
2017-07-20T21:58:23.047Z,20.80
2017-07-20T22:00:50.603Z,20.80
2017-07-20T22:03:18.171Z,20.70
2017-07-20T22:05:45.722Z,20.70
2017-07-20T22:08:13.288Z,20.70
2017-07-20T22:10:40.786Z,20.60
2017-07-20T22:13:08.263Z,20.50
2017-07-20T22:15:35.765Z,20.50
2017-07-20T22:18:03.325Z,20.40
2017-07-20T22:20:30.779Z,20.40
2017-07-20T22:22:58.344Z,20.40
2017-07-20T22:25:25.802Z,20.30
2017-07-20T22:27:53.288Z,20.30
2017-07-20T22:30:21.515Z,20.10
2017-07-20T22:32:48.982Z,20.10
2017-07-20T22:35:16.462Z,20.00
2017-07-20T22:37:44.028Z,20.00
2017-07-20T22:40:11.487Z,19.90
2017-07-20T22:42:39.740Z,19.80
2017-07-20T22:45:07.209Z,19.80
2017-07-20T22:47:34.768Z,19.90
2017-07-20T22:50:02.324Z,19.80
2017-07-20T22:52:29.790Z,19.70
2017-07-20T22:54:57.242Z,19.70
2017-07-20T22:57:25.119Z,19.80
2017-07-20T22:59:52.581Z,19.80
2017-07-20T23:02:20.811Z,19.70
2017-07-20T23:04:48.306Z,19.70
2017-07-20T23:07:15.858Z,19.70
2017-07-20T23:09:43.322Z,19.70
2017-07-20T23:12:10.795Z,19.70
2017-07-20T23:14:38.259Z,19.60
2017-07-20T23:17:06.510Z,19.60
2017-07-20T23:19:34.066Z,19.60
2017-07-20T23:22:01.527Z,19.60
2017-07-20T23:24:29.002Z,19.60
2017-07-20T23:26:57.364Z,19.40
2017-07-20T23:29:24.923Z,19.40
2017-07-20T23:31:52.382Z,19.40
2017-07-20T23:34:19.851Z,19.40
2017-07-20T23:36:47.331Z,19.40
2017-07-20T23:39:15.577Z,19.50
2017-07-20T23:41:43.038Z,19.50
2017-07-20T23:44:10.591Z,19.50
2017-07-20T23:46:38.160Z,19.60
2017-07-20T23:49:05.630Z,19.70
2017-07-20T23:51:33.858Z,19.80
2017-07-20T23:54:01.356Z,19.80
2017-07-20T23:56:28.827Z,19.90
2017-07-20T23:58:57.061Z,20.00
